Head of Island, Louisiana
Current Conditions -  °F | °C
As of 11:55 AM on Saturday 25 Oct 2014 (Local Time) from KHDC Reporting Station
Clear Clear  
Wind Chill: 25°   Ceiling: Unl
Heat Index: 26°   Visibility: 10mi
Dew Point: 10°   Wind: 0mph
Humidity: 39%   Direction: NA
Pressure: 30.16"   Gusts: NA
Location:  30.3666°N, 90.584°W
Report Text: KHDC 251655Z AUTO 00000KT 10SM CLR 25/10 A3016 RMK AO2
Loading
Personal Weather Stations






























Interactive Weather Map
Tropical Storm Tracking
New forecast layout! Learn more

10-Day Weather Forecast

Advertisements
Track Severe Weather on mobile